Time;durP1;ratioP1;P1;durP2;ratioP2;P2;SDS_P1;SDS_P2;PMS_P1;PMS_P2;Temp;Humidity;BMP_temperature;BMP_pressure;BME280_temperature;BME280_humidity;BME280_pressure;Samples;Min_cycle;Max_cycle;Signal;HPM_P1;HPM_P2
2022/05/03 00:01:52;;;;;;;4.72;2.20;;;;;;;12.03;77.24;100849.13;5241748;28;20028;-76
2022/05/03 00:04:59;;;;;;;2.63;2.00;;;;;;;11.99;77.62;100835.28;5241326;28;20036;-76
2022/05/03 00:07:42;;;;;;;3.95;2.15;;;;;;;11.91;78.74;100847.81;5241909;28;20028;-76
2022/05/03 00:10:15;;;;;;;2.50;2.00;;;;;;;12.03;77.99;100844.75;5240020;28;20692;-76
2022/05/03 00:12:52;;;;;;;4.38;2.15;;;;;;;12.15;78.79;100844.28;5242082;28;20440;-76
2022/05/03 00:15:24;;;;;;;3.58;2.10;;;;;;;12.40;76.16;100841.56;5242112;28;20466;-76
2022/05/03 00:17:55;;;;;;;3.60;2.28;;;;;;;12.16;76.00;100850.38;5242008;28;20119;-76
2022/05/03 00:20:26;;;;;;;3.55;2.20;;;;;;;12.11;76.34;100839.22;5241281;28;20170;-76
2022/05/03 00:22:57;;;;;;;3.95;2.40;;;;;;;12.28;75.35;100848.16;5241945;28;20028;-76
2022/05/03 00:25:29;;;;;;;3.35;2.10;;;;;;;12.15;76.11;100841.66;5242014;28;20102;-76
2022/05/03 00:28:00;;;;;;;3.33;2.13;;;;;;;11.89;78.62;100840.91;5242028;28;20510;-76
2022/05/03 00:30:31;;;;;;;5.82;2.83;;;;;;;11.78;78.85;100845.69;5238029;28;20029;-76
2022/05/03 00:33:04;;;;;;;4.28;2.50;;;;;;;11.72;79.18;100836.31;5241412;28;20505;-76
2022/05/03 00:35:34;;;;;;;4.47;2.40;;;;;;;11.61;79.79;100843.66;5232784;28;20029;-76
2022/05/03 00:38:05;;;;;;;4.35;2.75;;;;;;;11.61;80.01;100840.22;5239231;28;20652;-76
2022/05/03 00:40:44;;;;;;;5.68;2.45;;;;;;;11.45;81.27;100842.47;5241500;28;20494;-76
2022/05/03 00:43:25;;;;;;;5.05;2.47;;;;;;;11.57;80.49;100842.06;5241802;28;20024;-76
2022/05/03 00:46:05;;;;;;;4.50;2.20;;;;;;;11.49;79.26;100854.56;5241725;28;20016;-76
2022/05/03 00:48:47;;;;;;;4.22;2.00;;;;;;;11.61;77.42;100841.06;5238252;28;20506;-75
2022/05/03 00:51:25;;;;;;;4.18;1.50;;;;;;;11.63;75.12;100839.22;5239611;28;20020;-75
2022/05/03 00:54:09;;;;;;;4.00;1.58;;;;;;;11.72;74.41;100852.00;5241627;28;20028;-76
2022/05/03 00:56:57;;;;;;;3.13;1.58;;;;;;;11.85;73.84;100853.28;5238153;28;20107;-76
2022/05/03 00:59:55;;;;;;;6.35;1.45;;;;;;;11.85;72.03;100850.66;5241487;28;20031;-76
2022/05/03 01:02:51;;;;;;;2.83;1.50;;;;;;;11.70;73.30;100851.22;5240639;28;20595;-75
2022/05/03 01:05:44;;;;;;;3.28;1.70;;;;;;;11.71;73.31;100855.53;5240642;28;20032;-76
2022/05/03 01:08:28;;;;;;;3.45;1.75;;;;;;;11.59;73.50;100855.13;5242926;28;20107;-76
2022/05/03 01:11:14;;;;;;;2.38;1.30;;;;;;;11.54;72.22;100851.75;5235438;28;20032;-75
2022/05/03 01:14:04;;;;;;;5.00;1.33;;;;;;;11.53;71.65;100856.16;5243372;28;20032;-76
2022/05/03 01:16:52;;;;;;;5.60;1.38;;;;;;;11.54;71.22;100863.09;5241718;28;20048;-75
2022/05/03 01:19:50;;;;;;;4.53;1.40;;;;;;;11.49;71.33;100849.31;5245126;28;20063;-76
2022/05/03 01:22:39;;;;;;;2.83;1.50;;;;;;;11.38;71.24;100856.69;5229951;28;20052;-76
2022/05/03 01:25:33;;;;;;;3.28;1.50;;;;;;;11.42;70.23;100855.66;5241658;28;20032;-76
2022/05/03 01:28:27;;;;;;;2.47;1.30;;;;;;;11.43;70.93;100849.53;5198459;28;20558;-76
2022/05/03 01:31:10;;;;;;;2.33;1.02;;;;;;;11.17;69.80;100857.41;5244720;28;20035;-75
2022/05/03 01:33:42;;;;;;;4.30;1.10;;;;;;;11.21;69.13;100858.16;5242733;28;20034;-75
2022/05/03 01:36:23;;;;;;;5.47;1.08;;;;;;;11.21;70.12;100853.78;5245503;28;20032;-75
2022/05/03 01:39:11;;;;;;;1.83;1.13;;;;;;;11.30;69.77;100856.06;5245311;28;20047;-75
2022/05/03 01:42:09;;;;;;;2.78;0.93;;;;;;;11.24;69.75;100848.44;5241975;28;20024;-75
2022/05/03 01:44:59;;;;;;;2.72;1.20;;;;;;;11.08;69.44;100849.84;5242310;28;20383;-75
2022/05/03 01:47:35;;;;;;;2.00;1.08;;;;;;;11.13;69.21;100845.31;5240511;28;20036;-76
2022/05/03 01:50:27;;;;;;;1.30;0.90;;;;;;;11.03;68.84;100846.56;5244451;28;20074;-76
2022/05/03 01:53:35;;;;;;;2.10;0.90;;;;;;;11.02;69.26;100837.91;5244761;28;20318;-75
2022/05/03 01:56:22;;;;;;;1.52;0.88;;;;;;;11.02;69.55;100842.22;5240874;28;20024;-77
2022/05/03 01:59:04;;;;;;;2.75;1.10;;;;;;;10.91;69.89;100845.25;5235809;28;20040;-76
2022/05/03 02:01:40;;;;;;;2.22;1.00;;;;;;;10.83;70.11;100839.41;5240913;28;20036;-76
2022/05/03 02:04:24;;;;;;;3.45;1.10;;;;;;;10.94;70.28;100839.91;5244523;28;20590;-76
2022/05/03 02:07:14;;;;;;;1.83;0.93;;;;;;;10.89;69.37;100841.81;5244286;28;20199;-76
2022/05/03 02:10:06;;;;;;;5.03;1.13;;;;;;;10.86;69.50;100839.31;5242365;28;20081;-76
2022/05/03 02:12:37;;;;;;;4.32;1.20;;;;;;;10.88;69.92;100846.19;5228625;28;20032;-76
2022/05/03 02:15:11;;;;;;;1.50;1.00;;;;;;;10.72;70.03;100849.34;5244288;28;20391;-76
2022/05/03 02:17:52;;;;;;;3.30;1.00;;;;;;;10.65;70.18;100842.63;5244052;28;20029;-76
2022/05/03 02:20:53;;;;;;;3.67;1.20;;;;;;;10.56;70.32;100846.38;5243660;28;20028;-76
2022/05/03 02:23:48;;;;;;;3.13;0.93;;;;;;;10.58;70.58;100844.56;5243567;28;20062;-76
2022/05/03 02:26:49;;;;;;;1.98;0.90;;;;;;;10.43;70.73;100842.41;5241809;28;20028;-76
2022/05/03 02:29:30;;;;;;;2.60;0.93;;;;;;;10.53;70.57;100836.00;5242447;28;20043;-76
2022/05/03 02:32:12;;;;;;;3.60;0.95;;;;;;;10.49;70.18;100820.47;5239637;28;20029;-76
2022/05/03 02:34:47;;;;;;;1.77;1.00;;;;;;;10.36;70.35;100832.19;5244304;28;20449;-75
2022/05/03 02:37:23;;;;;;;2.25;1.02;;;;;;;10.48;70.90;100831.84;5243827;28;20031;-76
2022/05/03 02:40:02;;;;;;;3.15;1.00;;;;;;;10.49;70.41;100830.94;5243647;28;20074;-76
2022/05/03 02:42:33;;;;;;;1.85;0.98;;;;;;;10.42;70.56;100837.22;5240078;28;20032;-76
2022/05/03 02:45:05;;;;;;;3.58;0.82;;;;;;;10.34;70.55;100828.78;5243644;28;20064;-76
2022/05/03 02:47:48;;;;;;;2.00;0.80;;;;;;;10.34;70.92;100831.41;5243783;28;20383;-76
2022/05/03 02:50:21;;;;;;;2.55;0.90;;;;;;;10.27;70.48;100840.31;5242692;28;20020;-76
2022/05/03 02:52:58;;;;;;;4.07;1.10;;;;;;;10.19;70.75;100832.69;5243467;28;20116;-76
2022/05/03 02:55:50;;;;;;;2.17;0.90;;;;;;;10.08;71.68;100836.53;5243614;28;20024;-76
2022/05/03 02:58:51;;;;;;;1.65;1.00;;;;;;;10.14;71.93;100836.38;5243335;28;20044;-76
2022/05/03 03:01:58;;;;;;;2.72;1.20;;;;;;;10.21;71.86;100832.66;5242288;28;20111;-76
2022/05/03 03:05:05;;;;;;;1.98;1.13;;;;;;;10.00;72.10;100831.50;5243537;28;20204;-76
2022/05/03 03:07:46;;;;;;;1.50;1.00;;;;;;;9.91;72.37;100831.78;5229951;28;20543;-76
2022/05/03 03:10:22;;;;;;;4.85;1.10;;;;;;;9.95;72.21;100830.78;5243250;28;20102;-76
2022/05/03 03:13:02;;;;;;;1.02;0.75;;;;;;;9.92;72.80;100838.72;5243335;28;20504;-76
2022/05/03 03:15:39;;;;;;;3.08;1.13;;;;;;;9.91;72.59;100833.50;5243594;28;20044;-76
2022/05/03 03:18:20;;;;;;;1.58;0.85;;;;;;;9.93;72.74;100842.16;5243139;28;20025;-76
2022/05/03 03:20:59;;;;;;;3.72;0.95;;;;;;;9.92;73.16;100841.31;5242237;28;20019;-76
2022/05/03 03:23:31;;;;;;;1.42;0.90;;;;;;;9.79;72.86;100844.31;5242990;28;20036;-76
2022/05/03 03:26:02;;;;;;;3.65;1.00;;;;;;;9.92;72.82;100850.91;5239172;28;20070;-76
2022/05/03 03:28:35;;;;;;;1.35;0.88;;;;;;;9.71;73.44;100843.66;5242876;28;20025;-76
2022/05/03 03:31:06;;;;;;;2.83;1.10;;;;;;;9.82;72.62;100841.63;5242277;28;20581;-76
2022/05/03 03:33:37;;;;;;;2.45;0.82;;;;;;;9.68;72.65;100830.72;5242966;28;20029;-76
2022/05/03 03:36:09;;;;;;;2.25;0.90;;;;;;;9.54;73.42;100835.44;5242838;28;20526;-76
2022/05/03 03:38:46;;;;;;;1.80;0.93;;;;;;;9.53;74.43;100846.78;5242446;28;20120;-76
2022/05/03 03:41:16;;;;;;;2.45;1.00;;;;;;;9.52;74.64;100855.50;5242142;28;20021;-76
2022/05/03 03:43:47;;;;;;;1.35;1.05;;;;;;;9.51;75.17;100854.63;5241826;28;20032;-76
2022/05/03 03:46:17;;;;;;;3.22;0.90;;;;;;;9.19;76.90;100856.38;5241987;28;20093;-76
2022/05/03 03:48:47;;;;;;;2.45;1.10;;;;;;;8.89;79.85;100857.13;5242304;28;20026;-76
2022/05/03 03:51:18;;;;;;;1.90;1.00;;;;;;;8.94;80.29;100859.66;5242001;28;20095;-76
2022/05/03 03:53:49;;;;;;;4.13;1.30;;;;;;;9.09;79.22;100852.28;5242601;28;20028;-76
2022/05/03 03:56:20;;;;;;;2.00;1.20;;;;;;;9.07;79.60;100850.63;5239757;28;20067;-76
2022/05/03 03:58:51;;;;;;;1.77;1.15;;;;;;;8.94;81.71;100854.44;5241812;28;20024;-76
2022/05/03 04:01:21;;;;;;;1.50;0.93;;;;;;;9.06;79.82;100834.13;5241652;28;20032;-76
2022/05/03 04:03:52;;;;;;;1.73;1.08;;;;;;;9.19;77.70;100851.19;5225876;28;20035;-76
2022/05/03 04:06:22;;;;;;;3.83;1.30;;;;;;;9.06;77.40;100844.56;5242276;28;20512;-76
2022/05/03 04:08:52;;;;;;;2.33;1.10;;;;;;;9.41;76.41;100836.66;5242268;28;20035;-76
2022/05/03 04:11:23;;;;;;;2.22;1.10;;;;;;;9.32;77.20;100847.38;5241976;28;20482;-76
2022/05/03 04:13:53;;;;;;;3.38;1.42;;;;;;;8.81;84.48;100853.88;5232573;28;20028;-76
2022/05/03 04:16:24;;;;;;;2.72;1.10;;;;;;;8.76;85.85;100854.88;5241648;28;20024;-76
2022/05/03 04:18:55;;;;;;;4.20;1.67;;;;;;;8.90;84.48;100858.84;5241952;28;20034;-76
2022/05/03 04:21:25;;;;;;;2.22;1.25;;;;;;;8.76;87.20;100866.13;5241330;28;20567;-78
2022/05/03 04:23:55;;;;;;;2.10;1.30;;;;;;;8.61;88.37;100856.09;5244092;28;20074;-78
2022/05/03 04:26:26;;;;;;;1.77;1.25;;;;;;;8.67;90.05;100861.16;5243308;28;20032;-78
2022/05/03 04:28:58;;;;;;;2.33;1.10;;;;;;;8.82;89.03;100862.53;5243486;28;20067;-78
2022/05/03 04:31:30;;;;;;;4.50;1.40;;;;;;;8.60;90.87;100859.59;5243701;28;20058;-78
2022/05/03 04:34:03;;;;;;;2.72;1.40;;;;;;;8.29;90.99;100863.78;5240150;28;20037;-78
2022/05/03 04:36:33;;;;;;;2.28;1.40;;;;;;;8.71;89.32;100865.41;5242723;28;20031;-78
2022/05/03 04:39:04;;;;;;;2.22;1.25;;;;;;;8.91;85.50;100865.78;5242569;28;20033;-78
2022/05/03 04:41:34;;;;;;;2.78;1.30;;;;;;;8.83;86.86;100872.06;5243672;28;20081;-76
2022/05/03 04:44:05;;;;;;;1.75;1.20;;;;;;;8.85;88.85;100876.34;5245972;28;20128;-76
2022/05/03 04:46:35;;;;;;;2.60;1.50;;;;;;;9.02;88.02;100876.81;5245501;28;20040;-76
2022/05/03 04:49:05;;;;;;;2.60;1.30;;;;;;;9.03;89.75;100875.06;5245581;28;20028;-76
2022/05/03 04:51:35;;;;;;;1.98;1.30;;;;;;;9.16;89.97;100861.69;5244568;28;20034;-76
2022/05/03 04:54:06;;;;;;;1.90;1.30;;;;;;;9.06;88.58;100865.41;5245022;28;20509;-76
2022/05/03 04:56:36;;;;;;;2.47;1.40;;;;;;;9.21;87.46;100871.13;5245436;28;20046;-76
2022/05/03 04:59:06;;;;;;;1.75;1.40;;;;;;;9.22;88.19;100872.81;5245355;28;20025;-76
2022/05/03 05:01:36;;;;;;;2.17;1.13;;;;;;;9.32;83.84;100874.28;5245186;28;20025;-76
2022/05/03 05:04:07;;;;;;;2.93;1.60;;;;;;;9.01;90.12;100872.50;5244956;28;20102;-76
2022/05/03 05:06:37;;;;;;;2.88;1.42;;;;;;;9.28;86.20;100872.66;5244951;28;20274;-76
2022/05/03 05:09:07;;;;;;;3.08;1.40;;;;;;;9.60;85.21;100875.28;5245138;28;20166;-76
2022/05/03 05:11:38;;;;;;;3.08;1.30;;;;;;;9.73;82.54;100874.06;5244114;28;20098;-77
2022/05/03 05:14:08;;;;;;;5.55;1.30;;;;;;;10.01;81.75;100868.91;5244435;28;20060;-77
2022/05/03 05:16:38;;;;;;;8.33;1.50;;;;;;;10.26;78.10;100873.41;5244897;28;20105;-77
2022/05/03 05:19:08;;;;;;;3.97;1.27;;;;;;;10.45;79.11;100873.72;5242121;28;20289;-77
2022/05/03 05:21:39;;;;;;;3.70;1.60;;;;;;;10.09;79.14;100869.56;5244629;28;20115;-77
2022/05/03 05:24:25;;;;;;;4.27;1.23;;;;;;;10.38;78.34;100880.03;5245552;28;20028;-77
2022/05/03 05:26:56;;;;;;;4.28;1.70;;;;;;;10.33;80.04;100880.16;5232458;28;20838;-77
2022/05/03 05:29:26;;;;;;;5.72;1.50;;;;;;;10.63;78.37;100886.22;5244377;28;20047;-77
2022/05/03 05:31:56;;;;;;;4.63;1.50;;;;;;;10.57;77.26;100883.81;5244382;28;20024;-77
2022/05/03 05:34:27;;;;;;;3.58;1.60;;;;;;;10.78;76.56;100894.47;5243983;28;20369;-77
2022/05/03 05:36:57;;;;;;;4.72;1.52;;;;;;;10.87;74.57;100899.38;5243037;28;20031;-77
2022/05/03 05:39:28;;;;;;;6.03;1.30;;;;;;;11.36;72.76;100892.50;5244556;28;20073;-77
2022/05/03 05:41:59;;;;;;;4.75;1.83;;;;;;;12.45;68.57;100882.44;5244271;28;20043;-77
2022/05/03 05:44:29;;;;;;;4.32;1.80;;;;;;;11.94;68.10;100888.75;5240272;28;20181;-77
2022/05/03 05:46:59;;;;;;;4.03;1.57;;;;;;;11.52;68.55;100906.78;5244931;28;20103;-77
2022/05/03 05:49:30;;;;;;;4.65;1.50;;;;;;;11.02;71.70;100899.75;5243696;28;20357;-77
2022/05/03 05:54:49;;;;;;;3.92;1.27;;;;;;;14.51;61.60;100884.94;5245079;28;20094;-77
2022/05/03 05:57:20;;;;;;;3.53;1.35;;;;;;;15.72;57.32;100879.75;5244746;28;20028;-77
2022/05/03 05:59:50;;;;;;;3.78;1.25;;;;;;;16.98;54.47;100876.28;5245641;28;20023;-77
2022/05/03 06:02:20;;;;;;;2.08;1.27;;;;;;;16.67;54.73;100886.03;5245501;28;20047;-77
2022/05/03 06:04:51;;;;;;;2.15;1.10;;;;;;;14.99;57.80;100899.28;5244087;28;20028;-77
2022/05/03 06:07:21;;;;;;;2.42;1.30;;;;;;;14.34;60.10;100900.66;5244346;28;20028;-77
2022/05/03 06:09:52;;;;;;;2.63;1.25;;;;;;;13.16;62.41;100904.94;5244372;28;20035;-77
2022/05/03 06:12:22;;;;;;;6.57;1.48;;;;;;;12.84;63.19;100899.22;5243381;28;20032;-77
2022/05/03 06:14:52;;;;;;;2.50;1.10;;;;;;;12.70;63.32;100905.94;5244274;28;20025;-77
2022/05/03 06:17:23;;;;;;;3.77;1.10;;;;;;;13.97;60.73;100892.69;5243325;28;20125;-77
2022/05/03 06:19:53;;;;;;;2.92;1.20;;;;;;;13.12;61.79;100913.88;5243373;28;20293;-78
2022/05/03 06:22:23;;;;;;;7.07;1.33;;;;;;;14.76;60.04;100898.69;5243887;28;20044;-77
2022/05/03 06:24:54;;;;;;;3.03;1.20;;;;;;;14.30;60.02;100899.09;5245097;28;20345;-77
2022/05/03 06:27:24;;;;;;;5.28;1.00;;;;;;;14.08;60.45;100899.16;5244656;28;20047;-78
2022/05/03 06:29:54;;;;;;;2.90;1.00;;;;;;;15.17;59.34;100901.03;5246222;28;20024;-78
2022/05/03 06:32:25;;;;;;;2.22;1.20;;;;;;;17.24;55.42;100896.78;5245920;28;20044;-78
2022/05/03 06:34:56;;;;;;;1.77;0.88;;;;;;;19.37;52.63;100889.53;5246185;28;20071;-78
2022/05/03 06:37:26;;;;;;;1.63;0.90;;;;;;;17.17;53.25;100900.69;5245958;28;20621;-78
2022/05/03 06:39:56;;;;;;;3.42;0.98;;;;;;;18.54;50.37;100889.75;5246034;28;20024;-78
2022/05/03 06:42:26;;;;;;;1.75;0.85;;;;;;;18.82;48.50;100898.50;5245441;28;20039;-78
2022/05/03 06:44:59;;;;;;;2.87;1.03;;;;;;;18.15;47.99;100895.69;5232081;28;20032;-78
2022/05/03 06:47:30;;;;;;;1.73;0.70;;;;;;;16.79;50.06;100895.91;5240828;28;20297;-78
2022/05/03 06:50:01;;;;;;;3.10;0.60;;;;;;;16.18;50.35;100915.97;5243442;28;20024;-77
2022/05/03 06:52:31;;;;;;;1.92;0.60;;;;;;;15.56;51.87;100905.16;5243096;28;20489;-77
2022/05/03 06:55:01;;;;;;;3.65;1.00;;;;;;;16.88;50.35;100913.84;5242523;28;20385;-77
2022/05/03 06:57:32;;;;;;;4.72;1.80;;;;;;;17.60;48.99;100905.25;5244250;28;20036;-78
2022/05/03 07:00:05;;;;;;;2.88;1.40;;;;;;;21.30;44.53;100896.03;5245985;28;20082;-78
2022/05/03 07:02:36;;;;;;;2.42;1.00;;;;;;;20.24;44.13;100910.03;5244895;28;20770;-78
2022/05/03 07:05:07;;;;;;;2.20;0.90;;;;;;;20.56;44.71;100899.78;5243097;28;20020;-78
2022/05/03 07:07:38;;;;;;;1.63;0.80;;;;;;;17.29;47.41;100910.56;5244859;28;20036;-78
2022/05/03 07:10:09;;;;;;;3.38;0.65;;;;;;;17.39;49.66;100911.78;5244472;28;20062;-78
2022/05/03 07:12:39;;;;;;;1.08;0.50;;;;;;;17.36;47.12;100911.13;5244148;28;20032;-78
2022/05/03 07:15:10;;;;;;;1.05;0.40;;;;;;;15.93;50.44;100920.81;5226599;28;20081;-77
2022/05/03 07:23:18;;;;;;;1.08;0.50;;;;;;;17.65;44.93;100913.75;5242409;28;20094;-77
2022/05/03 07:25:48;;;;;;;1.17;0.50;;;;;;;19.39;43.04;100898.22;5234548;28;20032;-77
2022/05/03 07:28:19;;;;;;;3.20;0.60;;;;;;;19.76;42.01;100894.78;5244148;28;20297;-78
2022/05/03 07:30:49;;;;;;;1.42;0.60;;;;;;;21.20;41.35;100897.69;5244480;28;20039;-78
2022/05/03 07:33:20;;;;;;;1.92;0.40;;;;;;;23.57;39.51;100885.63;5244740;28;20035;-78
2022/05/03 07:35:50;;;;;;;1.13;0.40;;;;;;;23.99;38.07;100895.41;5245032;28;20039;-78
2022/05/03 07:38:20;;;;;;;3.27;0.57;;;;;;;25.00;37.42;100892.59;5244220;28;20309;-78
2022/05/03 07:40:50;;;;;;;0.80;0.40;;;;;;;23.60;38.88;100895.22;5244582;28;20346;-78
2022/05/03 07:43:21;;;;;;;1.02;0.50;;;;;;;25.51;37.10;100883.34;5245033;28;20128;-78
2022/05/03 07:45:51;;;;;;;0.77;0.30;;;;;;;24.60;37.23;100888.25;5244101;28;20134;-78
2022/05/03 07:48:22;;;;;;;1.83;0.50;;;;;;;23.87;37.55;100899.09;5244871;28;20032;-78
2022/05/03 07:50:52;;;;;;;0.70;0.40;;;;;;;26.34;35.75;100894.22;5244004;28;21030;-79
2022/05/03 07:53:23;;;;;;;1.02;0.50;;;;;;;25.65;36.82;100892.81;5244476;28;20032;-78
2022/05/03 07:55:53;;;;;;;0.68;0.50;;;;;;;24.30;37.21;100899.78;5245603;28;20497;-79
2022/05/03 07:58:23;;;;;;;0.85;0.50;;;;;;;24.52;37.30;100902.31;5244614;28;20028;-79
2022/05/03 08:00:53;;;;;;;2.40;0.60;;;;;;;26.76;36.29;100897.16;5250716;22;20044;-77
2022/05/03 08:03:24;;;;;;;1.02;0.50;;;;;;;24.77;37.37;100901.84;5231120;28;20040;-75
2022/05/03 08:05:54;;;;;;;0.60;0.40;;;;;;;26.64;36.55;100893.97;5226987;28;20038;-76
2022/05/03 08:08:25;;;;;;;0.73;0.60;;;;;;;25.79;37.69;100892.34;5225348;28;20060;-75
2022/05/03 08:10:55;;;;;;;4.47;0.80;;;;;;;25.90;37.38;100902.94;5225385;28;20272;-75
2022/05/03 08:13:26;;;;;;;2.37;0.90;;;;;;;25.24;37.95;100907.31;5228902;28;20067;-75
2022/05/03 08:15:56;;;;;;;1.58;0.77;;;;;;;25.00;38.61;100911.31;5230153;28;20025;-77
2022/05/03 08:18:26;;;;;;;1.98;0.80;;;;;;;26.38;36.74;100900.97;5227671;28;20414;-76
2022/05/03 08:20:56;;;;;;;1.63;0.87;;;;;;;23.36;39.82;100906.13;5229078;28;20025;-76
2022/05/03 08:23:27;;;;;;;3.07;0.90;;;;;;;24.18;39.89;100911.53;5230977;28;20515;-78
2022/05/03 08:25:58;;;;;;;3.20;1.00;;;;;;;24.61;39.67;100898.84;5229062;28;20092;-75
2022/05/03 08:28:28;;;;;;;1.98;0.90;;;;;;;25.24;38.49;100899.28;5225082;28;20068;-76
2022/05/03 08:30:59;;;;;;;2.53;0.80;;;;;;;26.17;37.79;100892.31;5228335;28;20029;-76
2022/05/03 08:33:30;;;;;;;3.50;0.90;;;;;;;23.43;39.25;100909.13;5228481;28;20131;-76
2022/05/03 08:36:00;;;;;;;2.55;0.95;;;;;;;24.53;38.69;100898.66;5224758;28;20021;-74
2022/05/03 08:44:09;;;;;;;3.72;0.90;;;;;;;25.40;38.78;100899.56;5229149;28;20458;-76
2022/05/03 08:46:42;;;;;;;2.80;1.00;;;;;;;28.56;36.96;100889.38;5219603;28;20037;-79
2022/05/03 08:49:14;;;;;;;4.45;1.55;;;;;;;28.97;36.17;100889.38;5224082;28;20084;-77
2022/05/03 08:51:44;;;;;;;1.88;1.02;;;;;;;27.52;36.99;100901.19;5225767;28;20087;-75
2022/05/03 08:54:15;;;;;;;1.77;1.05;;;;;;;22.17;41.36;100921.25;5222617;28;20037;-75
2022/05/03 08:56:45;;;;;;;1.98;1.00;;;;;;;26.02;37.73;100901.78;5232165;28;20466;-76
2022/05/03 08:59:15;;;;;;;1.80;0.97;;;;;;;25.22;37.96;100903.06;5229071;28;20289;-76
2022/05/03 09:01:45;;;;;;;2.05;1.00;;;;;;;23.58;39.93;100914.06;5222204;28;20025;-76
2022/05/03 09:04:16;;;;;;;1.60;0.98;;;;;;;25.74;38.37;100899.97;5228299;28;20036;-77
2022/05/03 09:06:48;;;;;;;2.73;1.27;;;;;;;25.09;39.39;100907.81;5226168;28;20045;-76
2022/05/03 09:09:20;;;;;;;2.60;1.20;;;;;;;24.00;40.42;100910.44;5226833;28;20577;-76
2022/05/03 09:11:53;;;;;;;3.30;1.40;;;;;;;22.29;43.29;100912.31;5226788;28;20017;-75
2022/05/03 09:14:39;;;;;;;1.83;1.00;;;;;;;22.88;43.03;100903.94;5233889;28;20029;-75
2022/05/03 09:17:09;;;;;;;3.17;1.55;;;;;;;21.94;43.92;100912.34;5230447;28;20064;-76
2022/05/03 09:19:40;;;;;;;2.30;1.52;;;;;;;20.94;43.82;100914.69;5226541;28;20032;-76
2022/05/03 09:25:13;;;;;;;2.60;1.52;;;;;;;21.15;46.31;100905.16;5230214;28;20485;-76
2022/05/03 09:27:44;;;;;;;2.67;1.63;;;;;;;21.12;45.42;100905.38;5229291;28;20428;-76
2022/05/03 09:30:14;;;;;;;4.97;1.80;;;;;;;20.16;47.31;100911.50;5229586;28;20029;-75
2022/05/03 09:32:45;;;;;;;2.33;1.45;;;;;;;20.72;46.81;100898.59;5230711;28;20307;-76
2022/05/03 09:35:33;;;;;;;3.55;1.67;;;;;;;20.46;45.75;100898.75;5233513;28;20036;-78
2022/05/03 09:38:04;;;;;;;4.63;1.80;;;;;;;20.39;47.38;100908.09;5231646;28;20109;-77
2022/05/03 09:40:36;;;;;;;2.60;1.70;;;;;;;20.26;47.21;100902.78;5229181;28;20021;-75
2022/05/03 09:43:06;;;;;;;3.55;1.88;;;;;;;20.12;46.30;100894.94;5231282;28;20082;-74
2022/05/03 09:45:37;;;;;;;3.92;1.73;;;;;;;19.66;48.74;100895.53;5236370;28;20387;-75
2022/05/03 09:48:08;;;;;;;4.28;1.70;;;;;;;20.48;48.09;100896.84;5232185;28;20085;-77
2022/05/03 09:50:42;;;;;;;4.05;1.80;;;;;;;20.07;49.06;100893.56;5235523;28;20077;-74
2022/05/03 09:53:18;;;;;;;5.15;1.95;;;;;;;20.16;49.47;100896.41;5232961;28;20033;-76
2022/05/03 09:55:49;;;;;;;4.40;2.05;;;;;;;19.55;49.18;100892.72;5230545;28;20283;-75
2022/05/03 09:58:20;;;;;;;4.45;2.30;;;;;;;19.98;49.09;100894.19;5224154;28;20063;-78
2022/05/03 10:00:50;;;;;;;4.05;2.25;;;;;;;20.04;49.42;100884.03;5222751;28;20081;-77
2022/05/03 10:03:21;;;;;;;4.37;2.13;;;;;;;20.58;48.88;100874.81;5217962;28;20419;-78
2022/05/03 10:05:51;;;;;;;6.10;2.67;;;;;;;20.11;48.69;100887.94;5221092;28;20280;-78
2022/05/03 10:08:22;;;;;;;5.15;2.60;;;;;;;19.87;48.46;100888.75;5220685;28;20542;-78
2022/05/03 10:10:56;;;;;;;4.10;2.45;;;;;;;19.70;49.44;100886.41;5217276;28;20025;-78
2022/05/03 10:13:27;;;;;;;4.65;2.72;;;;;;;19.48;49.53;100888.81;5221469;28;20033;-78
2022/05/03 10:21:44;;;;;;;5.25;2.53;;;;;;;19.40;49.82;100878.72;5217066;28;20305;-78
2022/05/03 10:24:14;;;;;;;4.30;2.90;;;;;;;18.53;49.75;100880.13;5223017;28;20060;-78
2022/05/03 10:27:05;;;;;;;5.45;2.75;;;;;;;17.86;51.39;100879.91;5221535;28;20164;-78
2022/05/03 10:29:36;;;;;;;5.53;2.42;;;;;;;18.66;51.35;100878.41;5215303;28;20580;-78
2022/05/03 10:32:06;;;;;;;3.60;2.20;;;;;;;19.03;50.91;100874.13;5219804;28;20053;-78
2022/05/03 10:34:40;;;;;;;4.57;2.30;;;;;;;18.98;51.44;100881.53;5216875;28;20110;-78
2022/05/03 10:37:19;;;;;;;3.80;2.65;;;;;;;19.20;51.38;100876.53;5220930;28;20025;-79
2022/05/03 10:40:19;;;;;;;6.28;2.90;;;;;;;19.22;51.33;100877.28;5220178;28;20048;-78
2022/05/03 10:43:10;;;;;;;5.85;2.38;;;;;;;19.54;52.55;100870.69;5220220;28;20041;-78
2022/05/03 10:45:48;;;;;;;4.93;3.13;;;;;;;19.32;50.82;100875.75;5220536;28;20032;-79
2022/05/03 10:48:23;;;;;;;7.28;3.03;;;;;;;18.88;52.34;100869.81;5221369;28;20031;-77
2022/05/03 10:51:02;;;;;;;6.53;2.50;;;;;;;18.79;51.96;100877.50;5221180;28;20100;-78
2022/05/03 10:53:41;;;;;;;4.70;2.42;;;;;;;19.09;52.35;100868.41;5217091;28;20039;-78
2022/05/03 10:56:16;;;;;;;5.00;2.80;;;;;;;18.84;53.92;100868.31;5217834;28;20033;-78
2022/05/03 10:59:15;;;;;;;5.85;3.08;;;;;;;18.94;53.42;100864.09;5221105;28;20028;-78
2022/05/03 11:02:06;;;;;;;6.10;3.08;;;;;;;18.73;54.08;100862.84;5219829;28;20029;-78
2022/05/03 11:05:16;;;;;;;4.35;2.70;;;;;;;18.40;54.15;100858.88;5214463;28;20079;-78
2022/05/03 11:08:14;;;;;;;3.30;2.28;;;;;;;18.42;53.37;100859.63;5203873;28;20052;-78
2022/05/03 11:10:45;;;;;;;2.22;1.60;;;;;;;18.23;52.08;100848.44;5215410;28;20048;-78
2022/05/03 11:13:35;;;;;;;3.28;2.20;;;;;;;18.18;53.10;100850.50;5220950;28;20022;-79
2022/05/03 11:16:23;;;;;;;3.53;2.28;;;;;;;18.42;55.11;100842.88;5215321;28;20030;-78
2022/05/03 11:18:54;;;;;;;3.90;2.78;;;;;;;18.35;54.93;100849.50;5225058;28;20025;-78
2022/05/03 11:21:24;;;;;;;4.45;2.58;;;;;;;18.58;55.55;100838.28;5223375;28;20090;-78
2022/05/03 11:23:55;;;;;;;4.75;2.78;;;;;;;18.65;55.95;100840.47;5222548;28;20048;-78
2022/05/03 11:26:26;;;;;;;5.22;3.30;;;;;;;18.26;55.12;100840.31;5218186;28;20526;-78
2022/05/03 11:28:58;;;;;;;5.45;3.22;;;;;;;18.40;56.13;100839.47;5216492;28;20025;-79
2022/05/03 11:31:29;;;;;;;3.90;3.00;;;;;;;18.60;54.78;100836.41;5216710;28;20029;-77
2022/05/03 11:33:59;;;;;;;3.85;2.60;;;;;;;18.46;56.75;100839.06;5214695;28;20029;-79
2022/05/03 11:36:30;;;;;;;6.18;2.15;;;;;;;18.63;54.35;100831.78;5220912;28;20029;-78
2022/05/03 11:39:03;;;;;;;3.65;2.78;;;;;;;18.51;54.38;100839.66;5215897;28;20137;-78
2022/05/03 11:41:33;;;;;;;5.20;2.50;;;;;;;18.55;54.83;100833.22;5217275;28;20031;-78
2022/05/03 11:44:03;;;;;;;4.33;2.67;;;;;;;18.59;55.00;100829.41;5221066;28;20029;-77
2022/05/03 11:46:34;;;;;;;3.60;2.30;;;;;;;18.64;54.35;100822.00;5215165;28;20279;-78
2022/05/03 11:49:06;;;;;;;6.95;2.10;;;;;;;18.95;55.96;100818.13;5217179;28;20025;-78
2022/05/03 11:57:35;;;;;;;5.72;2.00;;;;;;;18.90;54.79;100814.09;5229866;28;20048;-75
2022/05/03 12:00:07;;;;;;;2.13;1.40;;;;;;;18.79;53.43;100813.94;5226652;28;20017;-77
2022/05/03 12:02:41;;;;;;;2.85;1.70;;;;;;;18.70;53.12;100822.47;5230143;28;20017;-78
2022/05/03 12:05:17;;;;;;;3.28;1.90;;;;;;;18.66;53.30;100809.53;5231285;28;20494;-77
2022/05/03 12:07:52;;;;;;;2.25;1.50;;;;;;;18.76;53.40;100807.03;5236337;28;20074;-78
2022/05/03 12:10:31;;;;;;;3.05;1.92;;;;;;;18.52;55.06;100804.28;5230659;28;20029;-75
2022/05/03 12:13:12;;;;;;;3.50;2.30;;;;;;;18.31;55.34;100803.84;5226443;28;20029;-78
2022/05/03 12:16:06;;;;;;;4.70;2.58;;;;;;;18.49;55.14;100810.63;5217536;28;20094;-78
2022/05/03 12:18:39;;;;;;;3.25;1.80;;;;;;;18.63;55.36;100804.41;5215538;28;20029;-78
2022/05/03 12:21:21;;;;;;;4.72;1.85;;;;;;;18.64;56.55;100800.81;5212117;28;20032;-78
2022/05/03 12:23:58;;;;;;;2.58;1.50;;;;;;;18.94;54.63;100795.22;5213186;28;20028;-78
2022/05/03 12:26:37;;;;;;;2.67;1.58;;;;;;;19.00;55.08;100796.63;5207374;28;20025;-78
2022/05/03 12:29:08;;;;;;;4.57;2.22;;;;;;;18.73;54.41;100797.59;5215086;28;20025;-78
2022/05/03 12:31:41;;;;;;;4.35;2.10;;;;;;;18.84;55.22;100799.44;5213241;28;20028;-81
2022/05/03 12:34:22;;;;;;;2.75;1.90;;;;;;;18.61;54.20;100785.13;5220423;28;20082;-81